Time;durP1;ratioP1;P1;durP2;ratioP2;P2;SDS_P1;SDS_P2;PMS_P1;PMS_P2;Temp;Humidity;BMP_temperature;BMP_pressure;BME280_temperature;BME280_humidity;BME280_pressure;Samples;Min_cycle;Max_cycle;Signal;HPM_P1;HPM_P2
2023/04/10 00:00:55;;;;;;;50.60;46.10;;;;;;;6.45;95.88;98628.75;107013;1281;24550;-89
2023/04/10 00:03:24;;;;;;;51.20;46.60;;;;;;;6.43;95.94;98627.08;107151;1280;22538;-90
2023/04/10 00:05:53;;;;;;;53.60;48.70;;;;;;;6.44;96.32;98627.09;107027;1280;24239;-87
2023/04/10 00:08:23;;;;;;;54.20;49.30;;;;;;;6.42;96.15;98621.83;107079;1280;23827;-86
2023/04/10 00:10:53;;;;;;;55.60;50.60;;;;;;;6.43;96.20;98624.18;107324;1257;23372;-86
2023/04/10 00:13:21;;;;;;;54.80;49.80;;;;;;;6.43;96.39;98618.13;107090;1273;22555;-86
2023/04/10 00:15:49;;;;;;;56.50;51.50;;;;;;;6.42;96.53;98618.71;106832;1280;22527;-80
2023/04/10 00:18:17;;;;;;;60.00;54.70;;;;;;;6.41;96.71;98618.86;106963;1280;22496;-82
2023/04/10 00:20:45;;;;;;;63.20;57.70;;;;;;;6.35;96.89;98620.64;107207;1280;25410;-81
2023/04/10 00:23:13;;;;;;;61.40;55.70;;;;;;;6.30;97.08;98619.84;106991;1280;25536;-81
2023/04/10 00:25:41;;;;;;;63.50;57.50;;;;;;;6.27;97.36;98615.15;107017;1281;25355;-81
2023/04/10 00:28:09;;;;;;;63.40;57.70;;;;;;;6.25;97.59;98611.81;106922;1280;22525;-82
2023/04/10 00:30:37;;;;;;;61.80;56.30;;;;;;;6.22;97.57;98612.05;106959;1280;22648;-82
2023/04/10 00:33:05;;;;;;;62.60;57.00;;;;;;;6.19;98.02;98611.48;106970;1280;22538;-82
2023/04/10 00:35:33;;;;;;;62.90;57.10;;;;;;;6.17;99.02;98603.16;107016;1280;22586;-81
2023/04/10 00:38:02;;;;;;;64.20;58.50;;;;;;;6.13;99.40;98603.02;106996;1280;24396;-82
2023/04/10 00:40:30;;;;;;;65.50;59.50;;;;;;;6.09;99.03;98602.50;106988;1280;22656;-82
2023/04/10 00:42:58;;;;;;;65.00;59.20;;;;;;;6.08;98.90;98604.14;107567;1280;166862;-81
2023/04/10 00:45:26;;;;;;;65.60;59.50;;;;;;;6.10;98.37;98604.06;106870;1280;24477;-82
2023/04/10 00:47:55;;;;;;;65.00;58.90;;;;;;;6.12;98.54;98606.94;106796;1280;22690;-83
2023/04/10 00:50:23;;;;;;;62.20;56.60;;;;;;;6.14;98.36;98609.50;106768;1280;22647;-83
2023/04/10 00:52:52;;;;;;;64.80;59.00;;;;;;;6.15;98.73;98611.49;106888;1280;23164;-83
2023/04/10 00:55:20;;;;;;;65.40;59.60;;;;;;;6.16;99.22;98608.88;106893;1280;22662;-83
2023/04/10 00:57:48;;;;;;;66.30;60.50;;;;;;;6.16;99.34;98614.77;106938;1280;22534;-82
2023/04/10 01:00:17;;;;;;;67.40;61.20;;;;;;;6.13;99.47;98611.42;106868;1280;22536;-82
2023/04/10 01:02:47;;;;;;;64.20;58.40;;;;;;;6.10;99.02;98611.55;106858;1280;23433;-82
2023/04/10 01:05:17;;;;;;;63.60;57.90;;;;;;;6.10;98.77;98610.98;106987;1280;25284;-82
2023/04/10 01:08:03;;;;;;;67.20;61.20;;;;;;;6.11;98.54;98608.02;107017;1280;25420;-82
2023/04/10 01:10:42;;;;;;;64.30;58.20;;;;;;;6.13;98.71;98604.84;106854;1280;24085;-82
2023/04/10 01:13:33;;;;;;;64.90;58.90;;;;;;;6.15;98.82;98604.60;106870;1280;22649;-82
2023/04/10 01:16:10;;;;;;;63.50;57.90;;;;;;;6.14;98.75;98606.09;106876;1280;24393;-83
2023/04/10 01:18:52;;;;;;;63.00;57.20;;;;;;;6.16;98.67;98605.08;106828;1280;22522;-82
2023/04/10 01:21:21;;;;;;;63.90;58.20;;;;;;;6.18;98.65;98604.66;106989;1280;23902;-82
2023/04/10 01:24:07;;;;;;;67.90;61.70;;;;;;;6.18;99.90;98603.91;106966;1280;25629;-83
2023/04/10 01:26:52;;;;;;;64.20;58.50;;;;;;;6.11;99.75;98603.59;106998;1280;22662;-83
2023/04/10 01:29:25;;;;;;;62.10;56.40;;;;;;;6.08;99.98;98604.30;106916;1257;22628;-83
2023/04/10 01:32:02;;;;;;;63.40;57.40;;;;;;;6.07;100.00;98601.31;106961;1280;24225;-90
2023/04/10 01:34:48;;;;;;;64.30;58.50;;;;;;;6.06;99.93;98602.52;107916;1280;23581;-91
2023/04/10 01:37:23;;;;;;;62.30;56.90;;;;;;;6.08;99.89;98599.33;108554;1280;22946;-90
2023/04/10 01:39:59;;;;;;;66.00;60.10;;;;;;;6.08;100.00;98604.09;108768;1280;24036;-90
2023/04/10 01:42:31;;;;;;;69.00;62.90;;;;;;;6.05;99.97;98606.69;108904;1280;22616;-92
2023/04/10 01:45:00;;;;;;;70.40;63.80;;;;;;;6.03;99.94;98610.83;109503;1280;22567;-94
2023/04/10 01:47:29;;;;;;;66.40;60.30;;;;;;;6.04;100.00;98612.77;109193;1280;22534;-94
2023/04/10 01:49:58;;;;;;;65.10;58.60;;;;;;;6.05;100.00;98611.59;108790;1280;23256;-92
2023/04/10 01:52:27;;;;;;;67.50;60.70;;;;;;;6.04;100.00;98610.25;109279;1280;22552;-88
2023/04/10 01:55:26;;;;;;;68.20;61.80;;;;;;;6.06;100.00;98606.69;110013;1251;23744;-95
2023/04/10 01:58:00;;;;;;;66.50;59.90;;;;;;;6.06;100.00;98607.64;109482;1280;22523;-92
2023/04/10 02:00:44;;;;;;;67.80;61.60;;;;;;;6.08;100.00;98602.70;110229;1252;24337;-90
2023/04/10 02:03:12;;;;;;;68.60;61.80;;;;;;;6.09;100.00;98600.31;108473;1257;25163;-92
2023/04/10 02:06:08;;;;;;;70.00;62.70;;;;;;;6.11;100.00;98603.16;109065;1279;22554;-91
2023/04/10 02:08:42;;;;;;;69.60;62.80;;;;;;;6.13;100.00;98606.61;107836;1279;22527;-88
2023/04/10 02:11:13;;;;;;;73.90;66.30;;;;;;;6.14;100.00;98608.23;107149;1279;23150;-89
2023/04/10 02:13:42;;;;;;;71.60;64.50;;;;;;;6.17;100.00;98605.14;106913;1279;25261;-90
2023/04/10 02:16:13;;;;;;;74.10;66.30;;;;;;;6.15;100.00;98608.77;106937;1279;22608;-88
2023/04/10 02:18:42;;;;;;;78.00;69.90;;;;;;;6.11;100.00;98607.61;106935;1279;22538;-90
2023/04/10 02:21:10;;;;;;;78.30;70.00;;;;;;;6.08;100.00;98610.52;106949;1279;22818;-91
2023/04/10 02:23:41;;;;;;;71.80;64.10;;;;;;;6.06;100.00;98609.16;106911;1279;22661;-88
2023/04/10 02:26:09;;;;;;;82.20;68.60;;;;;;;6.06;100.00;98607.66;109221;1279;22379;-87
2023/04/10 02:28:38;;;;;;;78.60;70.30;;;;;;;6.04;100.00;98605.92;110034;1279;24489;-90
2023/04/10 02:31:06;;;;;;;83.10;69.10;;;;;;;6.04;100.00;98610.31;109013;1279;22489;-90
2023/04/10 02:33:35;;;;;;;92.70;72.40;;;;;;;6.05;100.00;98613.80;107410;1279;25506;-91
2023/04/10 02:36:03;;;;;;;87.10;70.60;;;;;;;6.06;100.00;98614.14;107106;1279;25253;-91
2023/04/10 02:38:31;;;;;;;110.70;74.00;;;;;;;6.09;100.00;98611.50;107220;1279;24305;-91
2023/04/10 02:40:59;;;;;;;109.50;73.70;;;;;;;6.11;100.00;98609.31;106975;1279;22642;-91
2023/04/10 02:43:28;;;;;;;98.50;72.90;;;;;;;6.13;100.00;98613.77;107085;1279;25301;-89
2023/04/10 02:45:57;;;;;;;95.80;72.60;;;;;;;6.12;100.00;98612.33;106926;1279;23159;-91
2023/04/10 02:48:26;;;;;;;98.80;73.70;;;;;;;6.11;100.00;98607.38;107244;1279;26528;-91
2023/04/10 02:50:59;;;;;;;89.90;71.70;;;;;;;6.06;100.00;98604.28;107158;1275;22965;-85
2023/04/10 02:53:28;;;;;;;81.50;65.70;;;;;;;6.05;100.00;98601.06;109312;1279;22529;-92
2023/04/10 02:55:59;;;;;;;84.20;67.80;;;;;;;6.03;100.00;98602.87;107712;1279;22664;-90
2023/04/10 02:58:29;;;;;;;82.70;68.30;;;;;;;6.04;100.00;98602.93;107259;1279;25413;-91
2023/04/10 03:00:57;;;;;;;83.60;69.10;;;;;;;6.04;100.00;98601.66;109436;1279;22031;-84
2023/04/10 03:03:46;;;;;;;102.90;73.20;;;;;;;6.03;100.00;98598.80;110155;1278;22559;-88
2023/04/10 03:06:18;;;;;;;111.30;76.50;;;;;;;6.01;100.00;98598.77;107738;1279;22531;-87
2023/04/10 03:08:47;;;;;;;110.40;76.80;;;;;;;6.01;100.00;98599.58;106771;1279;24381;-87
2023/04/10 03:11:15;;;;;;;114.60;76.40;;;;;;;5.98;100.00;98601.64;106797;1279;25475;-88
2023/04/10 03:13:42;;;;;;;113.70;78.30;;;;;;;5.96;100.00;98605.46;106768;1279;22559;-87
2023/04/10 03:16:10;;;;;;;106.80;77.50;;;;;;;5.93;100.00;98607.61;106835;1279;22578;-88
2023/04/10 03:18:39;;;;;;;126.60;81.50;;;;;;;5.89;100.00;98613.43;106864;1279;25028;-87
2023/04/10 03:21:07;;;;;;;120.70;83.20;;;;;;;5.84;100.00;98614.40;106790;1279;25710;-88
2023/04/10 03:23:35;;;;;;;137.40;88.00;;;;;;;5.82;100.00;98619.35;106598;1279;22855;-83
2023/04/10 03:26:04;;;;;;;133.90;86.50;;;;;;;5.81;100.00;98616.17;106915;1279;25306;-79
2023/04/10 03:28:38;;;;;;;136.40;89.80;;;;;;;5.80;100.00;98612.05;106908;1279;24182;-81
2023/04/10 03:31:11;;;;;;;135.00;84.70;;;;;;;5.77;100.00;98615.66;106937;1279;25266;-82
2023/04/10 03:33:40;;;;;;;140.50;88.60;;;;;;;5.76;100.00;98613.34;107690;1279;23446;-82
2023/04/10 03:36:10;;;;;;;160.30;90.90;;;;;;;5.74;100.00;98612.30;109051;1279;22562;-82
2023/04/10 03:38:38;;;;;;;140.30;86.20;;;;;;;5.73;100.00;98611.22;108796;1279;22642;-82
2023/04/10 03:41:08;;;;;;;139.90;89.20;;;;;;;5.75;100.00;98605.09;107819;1279;22540;-82
2023/04/10 03:43:36;;;;;;;93.70;80.90;;;;;;;5.74;100.00;98607.85;107896;1279;22540;-84
2023/04/10 03:46:05;;;;;;;141.40;86.90;;;;;;;5.72;100.00;98605.39;109799;1256;22068;-85
2023/04/10 03:48:35;;;;;;;124.10;83.70;;;;;;;5.70;100.00;98610.80;109848;1255;22248;-91
2023/04/10 03:51:03;;;;;;;157.00;86.90;;;;;;;5.72;100.00;98612.80;110267;1254;22500;-88
2023/04/10 03:53:34;;;;;;;113.30;75.00;;;;;;;5.74;100.00;98612.57;109614;1280;22486;-85
2023/04/10 03:56:07;;;;;;;124.10;76.80;;;;;;;5.79;100.00;98619.05;108720;1280;22528;-82
2023/04/10 03:58:36;;;;;;;86.70;73.40;;;;;;;5.75;100.00;98619.84;108378;1281;22627;-83
2023/04/10 04:01:04;;;;;;;150.70;71.80;;;;;;;5.75;100.00;98621.89;108790;1281;22567;-85
2023/04/10 04:03:43;;;;;;;120.00;74.50;;;;;;;5.76;100.00;98617.25;108127;1281;22573;-83
2023/04/10 04:06:30;;;;;;;117.20;77.30;;;;;;;5.78;100.00;98618.71;109459;1252;22546;-89
2023/04/10 04:09:12;;;;;;;117.80;77.30;;;;;;;5.77;100.00;98617.10;109178;1280;22075;-90
2023/04/10 04:12:00;;;;;;;78.30;69.30;;;;;;;5.79;100.00;98610.59;107466;1280;22571;-87
2023/04/10 04:14:48;;;;;;;101.80;72.40;;;;;;;5.76;100.00;98607.26;106867;1280;22467;-90
2023/04/10 04:21:56;;;;;;;133.30;70.50;;;;;;;5.75;100.00;98612.73;106901;1280;25522;-85
2023/04/10 04:24:47;;;;;;;102.50;71.20;;;;;;;5.78;100.00;98611.81;106785;1280;26720;-87
2023/04/10 04:27:20;;;;;;;75.20;64.00;;;;;;;5.74;100.00;98614.11;106843;1280;22547;-83
2023/04/10 04:29:56;;;;;;;106.10;70.50;;;;;;;5.75;100.00;98616.33;106805;1280;24869;-83
2023/04/10 04:32:34;;;;;;;86.10;67.50;;;;;;;5.74;100.00;98616.25;107538;1280;22478;-84
2023/04/10 04:35:20;;;;;;;90.30;68.00;;;;;;;5.71;100.00;98614.56;107509;1280;22616;-90
2023/04/10 04:38:07;;;;;;;81.90;68.50;;;;;;;5.70;100.00;98612.95;108201;1280;22654;-91
2023/04/10 04:40:58;;;;;;;94.30;66.90;;;;;;;5.70;100.00;98612.68;107387;1275;23252;-89
2023/04/10 04:43:55;;;;;;;100.60;65.30;;;;;;;5.68;100.00;98613.02;107802;1280;24216;-89
2023/04/10 04:46:39;;;;;;;91.40;64.60;;;;;;;5.65;100.00;98614.55;107625;1280;22872;-92
2023/04/10 04:49:35;;;;;;;77.50;64.20;;;;;;;5.67;100.00;98621.23;107429;1280;22589;-89
2023/04/10 04:52:09;;;;;;;69.30;62.30;;;;;;;5.70;100.00;98623.91;108856;1281;22571;-86
2023/04/10 04:55:12;;;;;;;92.00;61.70;;;;;;;5.69;100.00;98626.15;108268;1280;24240;-88
2023/04/10 04:58:30;;;;;;;82.20;62.30;;;;;;;5.72;100.00;98627.95;109566;1252;22574;-89
2023/04/10 05:01:14;;;;;;;78.60;61.50;;;;;;;5.75;100.00;98633.86;109641;1280;22849;-87
2023/04/10 05:04:16;;;;;;;86.60;60.90;;;;;;;5.74;100.00;98636.48;109257;1253;22168;31
2023/04/10 05:07:09;;;;;;;84.90;59.50;;;;;;;5.78;100.00;98636.90;110760;1255;23884;31
2023/04/10 05:10:01;;;;;;;82.50;64.60;;;;;;;5.78;100.00;98638.39;110812;1254;23957;31
2023/04/10 05:12:47;;;;;;;80.30;60.40;;;;;;;5.81;100.00;98641.55;107103;1281;22858;-88
2023/04/10 05:15:23;;;;;;;74.70;61.90;;;;;;;5.84;100.00;98642.53;108647;1280;22549;-89
2023/04/10 05:18:26;;;;;;;71.00;61.10;;;;;;;5.86;100.00;98649.63;110538;1253;22585;-83
2023/04/10 05:21:02;;;;;;;97.20;59.90;;;;;;;5.86;100.00;98654.44;110895;1254;22406;-90
2023/04/10 05:23:41;;;;;;;63.70;57.20;;;;;;;5.87;100.00;98660.34;107261;1280;22607;-92
2023/04/10 05:26:18;;;;;;;75.10;61.00;;;;;;;5.90;100.00;98659.56;107218;1280;24311;-91
2023/04/10 05:28:57;;;;;;;88.20;63.40;;;;;;;5.91;100.00;98662.58;107457;1280;24221;-91
2023/04/10 05:31:40;;;;;;;86.00;65.60;;;;;;;5.92;100.00;98656.48;107321;1280;24347;-94
2023/04/10 05:34:16;;;;;;;101.80;63.30;;;;;;;5.96;100.00;98658.11;108446;1280;22562;-89
2023/04/10 05:37:05;;;;;;;77.10;60.60;;;;;;;5.98;100.00;98661.97;106767;1280;25357;-90
2023/04/10 05:39:51;;;;;;;103.50;65.40;;;;;;;5.98;100.00;98663.27;107046;1279;22532;-90
2023/04/10 05:42:40;;;;;;;113.30;68.30;;;;;;;5.98;100.00;98663.21;106863;1280;25399;-90
2023/04/10 05:45:27;;;;;;;107.50;65.50;;;;;;;6.01;100.00;98664.69;106946;1279;22653;-87
2023/04/10 05:48:23;;;;;;;71.90;62.40;;;;;;;5.99;100.00;98661.19;109242;1253;22256;31
2023/04/10 05:51:36;;;;;;;80.30;67.20;;;;;;;6.00;100.00;98660.09;109291;1254;22214;-93
2023/04/10 05:54:36;;;;;;;100.80;70.00;;;;;;;5.99;100.00;98658.09;107814;1281;24075;-92
2023/04/10 05:57:18;;;;;;;102.90;64.30;;;;;;;6.02;100.00;98656.63;106833;1260;23907;-88
2023/04/10 06:00:05;;;;;;;112.70;68.40;;;;;;;6.03;100.00;98655.19;106983;1281;24463;-89
2023/04/10 06:03:03;;;;;;;98.70;69.10;;;;;;;6.00;100.00;98660.39;106856;1264;22527;-85
2023/04/10 06:05:31;;;;;;;93.30;65.50;;;;;;;6.00;100.00;98659.98;107124;1282;22532;-93
2023/04/10 06:08:03;;;;;;;74.40;63.40;;;;;;;6.01;100.00;98666.79;108703;1257;22578;-92
2023/04/10 06:10:31;;;;;;;101.70;69.60;;;;;;;6.03;100.00;98673.11;108036;1280;24282;-92
2023/04/10 06:13:00;;;;;;;91.20;64.60;;;;;;;6.00;100.00;98673.18;107303;1280;22582;-90
2023/04/10 06:15:28;;;;;;;84.10;63.40;;;;;;;6.01;100.00;98677.75;107045;1281;22678;-88
2023/04/10 06:17:57;;;;;;;90.50;66.60;;;;;;;6.03;100.00;98668.98;107553;1280;22657;-92
2023/04/10 06:20:25;;;;;;;72.00;60.90;;;;;;;5.98;100.00;98668.52;107656;1280;22643;-89
2023/04/10 06:22:54;;;;;;;70.70;63.10;;;;;;;5.98;100.00;98664.61;107485;1280;22643;-88
2023/04/10 06:25:22;;;;;;;72.60;62.10;;;;;;;6.04;100.00;98664.02;107646;1280;22652;-92
2023/04/10 06:27:50;;;;;;;72.80;63.20;;;;;;;6.06;100.00;98664.32;107063;1280;22590;-89
2023/04/10 06:30:18;;;;;;;69.30;62.00;;;;;;;6.08;100.00;98665.79;108273;1279;22040;-88
2023/04/10 06:32:47;;;;;;;71.40;62.10;;;;;;;6.06;100.00;98665.34;109863;1281;22138;-89
2023/04/10 06:35:16;;;;;;;74.60;62.60;;;;;;;6.09;100.00;98667.53;109566;1279;22520;-92
2023/04/10 06:37:44;;;;;;;74.00;63.40;;;;;;;6.12;100.00;98663.70;109236;1281;22495;-93
2023/04/10 06:40:21;;;;;;;69.10;60.30;;;;;;;6.18;100.00;98665.85;109861;1258;22570;-90
2023/04/10 06:42:50;;;;;;;78.60;65.00;;;;;;;6.19;100.00;98661.73;110297;1263;22760;-91
2023/04/10 06:45:26;;;;;;;69.80;62.40;;;;;;;6.22;100.00;98660.77;108632;1281;25473;-93
2023/04/10 06:48:53;;;;;;;79.60;65.70;;;;;;;6.24;100.00;98657.23;107692;1282;22555;-90
2023/04/10 06:54:24;;;;;;;77.60;67.20;;;;;;;6.30;100.00;98661.38;107734;1281;25288;-91
2023/04/10 06:56:57;;;;;;;69.50;62.10;;;;;;;6.33;100.00;98658.20;107811;1281;25424;-92
2023/04/10 06:59:32;;;;;;;78.30;68.60;;;;;;;6.35;100.00;98659.77;108186;1281;22529;-91
2023/04/10 07:02:02;;;;;;;73.60;63.40;;;;;;;6.33;100.00;98665.16;106876;1281;22672;-86
2023/04/10 07:04:31;;;;;;;74.80;65.40;;;;;;;6.39;100.00;98662.16;106862;1282;22529;-84
2023/04/10 07:06:59;;;;;;;72.70;64.90;;;;;;;6.41;100.00;98662.39;107801;1282;22956;-90
2023/04/10 07:09:28;;;;;;;81.80;68.30;;;;;;;6.42;100.00;98663.80;109006;1257;22670;-86
2023/04/10 07:11:56;;;;;;;70.00;60.60;;;;;;;6.49;100.00;98665.80;108284;1280;22534;-91
2023/04/10 07:14:25;;;;;;;77.20;66.20;;;;;;;6.54;100.00;98665.04;108896;1280;22485;-91
2023/04/10 07:16:53;;;;;;;80.70;67.10;;;;;;;6.52;100.00;98667.86;108302;1280;25291;-90
2023/04/10 07:23:24;;;;;;;80.60;69.30;;;;;;;6.58;100.00;98661.33;110015;1270;22226;31
2023/04/10 07:26:00;;;;;;;80.60;65.30;;;;;;;6.62;100.00;98665.53;109904;1255;22645;31
2023/04/10 07:28:28;;;;;;;80.80;64.80;;;;;;;6.62;100.00;98662.16;109746;1285;22335;-90
2023/04/10 07:31:16;;;;;;;71.30;61.80;;;;;;;6.71;100.00;98669.42;109903;1260;24353;-86
2023/04/10 07:33:48;;;;;;;70.60;63.10;;;;;;;6.74;100.00;98671.65;109945;1260;22484;-87
2023/04/10 07:36:16;;;;;;;76.90;65.80;;;;;;;6.71;100.00;98670.88;109179;1274;22567;-86
2023/04/10 07:38:45;;;;;;;70.80;62.80;;;;;;;6.78;100.00;98676.02;109643;1259;23065;-86
2023/04/10 07:42:00;;;;;;;70.00;62.50;;;;;;;6.74;100.00;98663.25;109582;1254;24256;31
2023/04/10 07:44:28;;;;;;;73.30;65.30;;;;;;;6.77;100.00;98675.80;107653;1258;22594;-93
2023/04/10 07:46:57;;;;;;;72.20;64.20;;;;;;;6.77;100.00;98671.29;108409;1263;24383;-91
2023/04/10 07:49:26;;;;;;;70.30;62.60;;;;;;;6.81;100.00;98673.09;107556;1287;22562;-90
2023/04/10 07:51:54;;;;;;;71.60;64.00;;;;;;;6.78;100.00;98675.48;108324;1287;22571;-91
2023/04/10 07:54:22;;;;;;;69.20;62.00;;;;;;;6.75;100.00;98677.23;108430;1284;22552;-91
2023/04/10 07:56:52;;;;;;;77.20;65.10;;;;;;;6.76;100.00;98676.33;107616;1287;22470;-89
2023/04/10 07:59:20;;;;;;;73.50;64.10;;;;;;;6.79;100.00;98676.25;107209;1288;24263;-87
2023/04/10 08:01:50;;;;;;;84.90;69.60;;;;;;;6.83;100.00;98678.10;107171;1288;22614;-89
2023/04/10 08:04:18;;;;;;;80.70;66.50;;;;;;;6.88;100.00;98680.70;107018;1287;25440;-87
2023/04/10 08:06:46;;;;;;;71.50;64.00;;;;;;;6.88;100.00;98683.55;106955;1288;25965;-87
2023/04/10 08:09:14;;;;;;;70.70;63.30;;;;;;;6.89;100.00;98684.42;107185;1288;22692;-88
2023/04/10 08:11:42;;;;;;;68.40;61.00;;;;;;;6.86;100.00;98685.02;107206;1288;22584;-87
2023/04/10 08:14:12;;;;;;;70.60;63.20;;;;;;;6.88;100.00;98681.25;107252;1288;22714;-87
2023/04/10 08:16:45;;;;;;;73.10;65.00;;;;;;;6.88;100.00;98678.52;107165;1288;22499;-86
2023/04/10 08:19:13;;;;;;;73.10;64.40;;;;;;;6.89;100.00;98679.38;107127;1288;23917;-87
2023/04/10 08:21:41;;;;;;;71.00;62.90;;;;;;;6.90;100.00;98679.88;107132;1288;23931;-87
2023/04/10 08:24:09;;;;;;;74.00;65.30;;;;;;;6.94;100.00;98677.92;107097;1286;25931;-86
2023/04/10 08:26:37;;;;;;;73.90;66.40;;;;;;;7.01;100.00;98676.32;107424;1288;25587;-89
2023/04/10 08:29:05;;;;;;;78.20;65.60;;;;;;;7.00;100.00;98675.88;107403;1289;22527;-91
2023/04/10 08:31:33;;;;;;;73.80;64.20;;;;;;;7.00;100.00;98677.21;107766;1288;23868;-92
2023/04/10 08:34:02;;;;;;;73.80;65.80;;;;;;;7.07;100.00;98676.04;107824;1288;22669;-90
2023/04/10 08:36:31;;;;;;;80.10;66.60;;;;;;;7.10;100.00;98675.64;107404;1288;24221;-90
2023/04/10 08:38:59;;;;;;;75.40;66.10;;;;;;;7.17;100.00;98671.02;107653;1288;22649;-90
2023/04/10 08:41:27;;;;;;;79.50;68.50;;;;;;;7.21;100.00;98673.52;107687;1288;24211;-89
2023/04/10 08:43:56;;;;;;;75.70;64.40;;;;;;;7.24;100.00;98670.01;107671;1288;22502;-87
2023/04/10 08:46:26;;;;;;;73.50;65.40;;;;;;;7.15;100.00;98645.48;108429;1288;22540;-86
2023/04/10 08:49:01;;;;;;;73.30;65.30;;;;;;;7.33;100.00;98671.77;108013;1288;25392;-85
2023/04/10 08:51:42;;;;;;;71.50;63.90;;;;;;;7.39;100.00;98669.73;107096;1288;22558;-87
2023/04/10 08:54:25;;;;;;;68.00;61.00;;;;;;;7.54;100.00;98668.20;108256;1258;22602;-92
2023/04/10 08:56:55;;;;;;;69.60;62.20;;;;;;;7.75;100.00;98663.77;109077;1287;22620;-86
2023/04/10 08:59:23;;;;;;;76.10;66.10;;;;;;;7.74;100.00;98664.45;109704;1285;22086;-87
2023/04/10 09:01:52;;;;;;;70.50;62.90;;;;;;;7.78;100.00;98663.61;109144;1287;22568;-89
2023/04/10 09:04:30;;;;;;;66.30;59.30;;;;;;;7.84;100.00;98666.27;107896;1288;22660;-84
2023/04/10 09:06:59;;;;;;;69.30;62.00;;;;;;;7.88;100.00;98668.30;107281;1288;25948;-89
2023/04/10 09:09:31;;;;;;;67.00;60.00;;;;;;;7.90;100.00;98667.64;107240;1288;24206;-90
2023/04/10 09:12:01;;;;;;;65.90;59.10;;;;;;;7.92;100.00;98666.98;106969;1288;26801;-90
2023/04/10 09:14:32;;;;;;;66.90;59.70;;;;;;;7.92;100.00;98667.31;107044;1288;22674;-85
2023/04/10 09:17:13;;;;;;;67.20;60.10;;;;;;;7.96;100.00;98664.75;108145;1288;23753;-86
2023/04/10 09:19:43;;;;;;;68.20;61.20;;;;;;;7.98;100.00;98666.20;108598;1260;23678;-92
2023/04/10 09:22:11;;;;;;;68.80;61.50;;;;;;;8.06;100.00;98658.77;107722;1287;22661;-88
2023/04/10 09:24:42;;;;;;;66.00;59.20;;;;;;;8.16;100.00;98652.64;107589;1287;25954;-90
2023/04/10 09:27:27;;;;;;;62.40;56.10;;;;;;;8.30;100.00;98652.94;107459;1287;22560;-90
2023/04/10 09:29:55;;;;;;;;;;;;;;;8.43;100.00;98649.88;107630;1287;22675;-84
2023/04/10 09:32:44;;;;;;;63.40;56.90;;;;;;;8.48;100.00;98651.45;107195;1270;26542;-86
2023/04/10 09:35:14;;;;;;;62.40;55.80;;;;;;;8.52;100.00;98649.67;107320;1287;23019;-88
2023/04/10 09:37:45;;;;;;;62.90;56.60;;;;;;;8.65;100.00;98647.60;107196;1287;24300;-85
2023/04/10 09:40:24;;;;;;;59.90;53.90;;;;;;;8.82;100.00;98647.61;107128;1287;24223;-85
2023/04/10 09:42:54;;;;;;;63.00;56.40;;;;;;;8.90;100.00;98653.24;107255;1287;22585;-87
2023/04/10 09:45:23;;;;;;;61.80;55.30;;;;;;;8.96;100.00;98650.41;107417;1287;22554;-87
2023/04/10 09:48:09;;;;;;;57.50;51.60;;;;;;;8.97;100.00;98650.46;107595;1287;24212;-90
2023/04/10 09:50:41;;;;;;;59.10;53.30;;;;;;;8.97;100.00;98654.00;107407;1287;25356;-89
2023/04/10 09:53:12;;;;;;;59.60;53.50;;;;;;;8.94;100.00;98650.83;107549;1287;24193;-91
2023/04/10 09:55:42;;;;;;;64.80;58.40;;;;;;;8.97;100.00;98652.02;107314;1287;22633;-87
2023/04/10 09:58:10;;;;;;;65.40;58.80;;;;;;;8.99;100.00;98650.56;107641;1287;22656;-82
2023/04/10 10:00:40;;;;;;;57.40;51.90;;;;;;;8.98;100.00;98650.23;107629;1284;25332;-89
2023/04/10 10:03:11;;;;;;;61.50;55.40;;;;;;;8.95;100.00;98649.22;107557;1287;22639;-88
2023/04/10 10:05:42;;;;;;;61.00;54.70;;;;;;;8.93;100.00;98642.77;107487;1288;23964;-87
2023/04/10 10:08:12;;;;;;;56.70;51.20;;;;;;;8.95;100.00;98633.04;107345;1289;22544;-89
2023/04/10 10:10:47;;;;;;;60.20;54.20;;;;;;;9.01;100.00;98633.20;107407;1288;22629;-90
2023/04/10 10:13:23;;;;;;;58.50;52.70;;;;;;;9.19;100.00;98628.60;108311;1288;25424;-91
2023/04/10 10:16:08;;;;;;;57.80;52.00;;;;;;;9.30;100.00;98628.48;107359;1288;22557;-90
2023/04/10 10:18:45;;;;;;;60.10;53.90;;;;;;;9.41;100.00;98625.16;108248;1289;22665;-91
2023/04/10 10:21:15;;;;;;;53.30;48.00;;;;;;;9.53;100.00;98625.08;107228;1288;22549;-85
2023/04/10 10:23:44;;;;;;;51.30;46.40;;;;;;;9.66;100.00;98619.60;107549;1288;22502;-86
2023/04/10 10:26:14;;;;;;;54.20;48.80;;;;;;;9.78;100.00;98617.95;107639;1288;22551;-85
2023/04/10 10:28:45;;;;;;;53.50;48.10;;;;;;;9.90;100.00;98621.77;107582;1288;22502;-90
2023/04/10 10:31:16;;;;;;;50.10;45.30;;;;;;;9.94;100.00;98617.17;106925;1288;25356;-90
2023/04/10 10:33:46;;;;;;;48.60;43.90;;;;;;;10.01;100.00;98620.10;107036;1288;22543;-87
2023/04/10 10:36:17;;;;;;;51.70;46.80;;;;;;;10.03;100.00;98618.73;106794;1288;22556;-84
2023/04/10 10:39:14;;;;;;;45.60;41.40;;;;;;;10.00;100.00;98620.27;106708;1289;22550;-84
2023/04/10 10:41:50;;;;;;;44.60;40.10;;;;;;;9.90;100.00;98615.41;106157;1295;24484;-87
2023/04/10 10:44:28;;;;;;;41.30;37.40;;;;;;;9.89;100.00;98615.80;106562;1295;22569;-88
2023/04/10 10:47:17;;;;;;;44.10;39.80;;;;;;;9.89;100.00;98607.73;106676;1295;23814;-91
2023/04/10 10:49:59;;;;;;;44.30;39.80;;;;;;;9.93;100.00;98606.51;107005;1295;24253;-90
2023/04/10 10:52:43;;;;;;;43.00;38.80;;;;;;;9.93;100.00;98606.40;107517;1295;23830;-86
2023/04/10 10:55:23;;;;;;;40.40;36.60;;;;;;;9.93;99.80;98605.06;108852;1295;22454;-86
2023/04/10 10:57:53;;;;;;;40.40;36.40;;;;;;;9.96;100.00;98600.30;107562;1295;25420;-91
2023/04/10 11:00:23;;;;;;;39.50;35.60;;;;;;;10.08;99.96;98594.70;107074;1295;22546;-88
2023/04/10 11:03:06;;;;;;;43.60;39.20;;;;;;;10.16;99.67;98593.90;106738;1295;22691;-86
2023/04/10 11:05:51;;;;;;;41.80;37.80;;;;;;;10.22;98.99;98588.73;106561;1295;24475;-86
2023/04/10 11:08:31;;;;;;;39.20;35.40;;;;;;;10.24;99.35;98582.81;107424;1289;22593;-89
2023/04/10 11:11:03;;;;;;;40.90;37.00;;;;;;;10.30;99.49;98577.77;107614;1295;22702;-87
2023/04/10 11:13:32;;;;;;;39.80;36.00;;;;;;;10.35;99.75;98576.62;107778;1295;24417;-90
2023/04/10 11:16:02;;;;;;;40.10;36.10;;;;;;;10.38;98.23;98573.25;108168;1295;22551;-90
2023/04/10 11:18:49;;;;;;;36.00;32.40;;;;;;;10.37;98.40;98571.20;108669;1289;22541;-89
2023/04/10 11:21:34;;;;;;;37.80;34.20;;;;;;;10.46;99.41;98569.48;109152;1289;22565;-87
2023/04/10 11:24:03;;;;;;;41.00;36.90;;;;;;;10.56;98.83;98573.27;109387;1289;22555;-89
2023/04/10 11:26:40;;;;;;;37.10;33.30;;;;;;;10.64;98.97;98572.36;109681;1257;23494;-91
2023/04/10 11:29:17;;;;;;;39.40;35.40;;;;;;;10.76;96.28;98568.54;109840;1286;22569;-90
2023/04/10 11:31:57;;;;;;;34.70;31.20;;;;;;;10.87;96.49;98562.23;109748;1286;22582;-88
2023/04/10 11:34:26;;;;;;;36.90;33.50;;;;;;;11.05;94.57;98558.77;109612;1286;22825;-85
2023/04/10 11:36:54;;;;;;;37.10;33.50;;;;;;;11.16;93.56;98560.22;109346;1286;22657;-86
2023/04/10 11:39:22;;;;;;;35.80;32.20;;;;;;;11.27;94.06;98558.42;109279;1286;23319;-87
2023/04/10 11:41:52;;;;;;;33.40;30.20;;;;;;;11.48;92.68;98555.33;109825;1286;22501;-87
2023/04/10 11:44:35;;;;;;;34.50;31.20;;;;;;;11.63;90.94;98555.52;109636;1286;22578;-90
2023/04/10 11:47:03;;;;;;;35.80;32.30;;;;;;;11.94;95.07;98543.79;108820;1276;26505;-89
2023/04/10 11:49:33;;;;;;;32.80;29.60;;;;;;;12.28;93.57;98541.95;108413;1286;22544;-90
2023/04/10 11:52:02;;;;;;;32.80;29.50;;;;;;;12.29;90.46;98544.63;108799;1286;22616;-83
2023/04/10 11:54:47;;;;;;;33.00;29.50;;;;;;;12.30;92.29;98536.13;109405;1286;22497;-87